sensor_id;sensor_type;location;lat;lon;timestamp;P1;durP1;ratioP1;P2;durP2;ratioP2
55827;SDS011;41758;51.992;5.890;2023-05-07T00:02:24;6.97;;;5.90;;
55827;SDS011;41758;51.992;5.890;2023-05-07T00:04:50;6.88;;;6.18;;
55827;SDS011;41758;51.992;5.890;2023-05-07T00:07:17;6.93;;;5.72;;
55827;SDS011;41758;51.992;5.890;2023-05-07T00:09:43;6.30;;;5.70;;
55827;SDS011;41758;51.992;5.890;2023-05-07T00:12:09;6.35;;;5.30;;
55827;SDS011;41758;51.992;5.890;2023-05-07T00:14:35;5.95;;;5.35;;
55827;SDS011;41758;51.992;5.890;2023-05-07T00:17:01;6.47;;;5.65;;
55827;SDS011;41758;51.992;5.890;2023-05-07T00:19:27;6.40;;;5.65;;
55827;SDS011;41758;51.992;5.890;2023-05-07T00:21:53;7.10;;;6.13;;
55827;SDS011;41758;51.992;5.890;2023-05-07T00:24:19;6.65;;;5.95;;
55827;SDS011;41758;51.992;5.890;2023-05-07T00:26:44;6.88;;;6.18;;
55827;SDS011;41758;51.992;5.890;2023-05-07T00:29:10;7.03;;;6.32;;
55827;SDS011;41758;51.992;5.890;2023-05-07T00:31:36;7.38;;;6.25;;
55827;SDS011;41758;51.992;5.890;2023-05-07T00:34:02;7.57;;;6.50;;
55827;SDS011;41758;51.992;5.890;2023-05-07T00:36:27;7.50;;;6.78;;
55827;SDS011;41758;51.992;5.890;2023-05-07T00:38:54;7.15;;;6.07;;
55827;SDS011;41758;51.992;5.890;2023-05-07T00:41:21;7.80;;;6.47;;
55827;SDS011;41758;51.992;5.890;2023-05-07T00:43:47;7.90;;;6.72;;
55827;SDS011;41758;51.992;5.890;2023-05-07T00:46:13;7.50;;;6.78;;
55827;SDS011;41758;51.992;5.890;2023-05-07T00:48:41;7.88;;;6.47;;
55827;SDS011;41758;51.992;5.890;2023-05-07T00:51:06;7.32;;;6.47;;
55827;SDS011;41758;51.992;5.890;2023-05-07T00:53:32;6.78;;;6.07;;
55827;SDS011;41758;51.992;5.890;2023-05-07T00:55:59;8.20;;;6.72;;
55827;SDS011;41758;51.992;5.890;2023-05-07T00:58:25;7.30;;;6.38;;
55827;SDS011;41758;51.992;5.890;2023-05-07T01:00:51;7.00;;;6.30;;
55827;SDS011;41758;51.992;5.890;2023-05-07T01:03:17;7.50;;;6.80;;
55827;SDS011;41758;51.992;5.890;2023-05-07T01:05:43;7.32;;;6.50;;
55827;SDS011;41758;51.992;5.890;2023-05-07T01:08:12;7.53;;;6.75;;
55827;SDS011;41758;51.992;5.890;2023-05-07T01:10:40;7.75;;;6.95;;
55827;SDS011;41758;51.992;5.890;2023-05-07T01:13:08;8.07;;;7.20;;
55827;SDS011;41758;51.992;5.890;2023-05-07T01:15:36;8.30;;;7.45;;
55827;SDS011;41758;51.992;5.890;2023-05-07T01:18:02;8.90;;;8.00;;
55827;SDS011;41758;51.992;5.890;2023-05-07T01:20:32;9.57;;;8.57;;
55827;SDS011;41758;51.992;5.890;2023-05-07T01:22:58;9.15;;;8.25;;
55827;SDS011;41758;51.992;5.890;2023-05-07T01:25:25;9.23;;;8.32;;
55827;SDS011;41758;51.992;5.890;2023-05-07T01:27:55;9.25;;;8.35;;
55827;SDS011;41758;51.992;5.890;2023-05-07T01:30:25;9.95;;;8.95;;
55827;SDS011;41758;51.992;5.890;2023-05-07T01:32:53;9.57;;;8.68;;
55827;SDS011;41758;51.992;5.890;2023-05-07T01:35:29;9.93;;;9.02;;
55827;SDS011;41758;51.992;5.890;2023-05-07T01:37:59;9.70;;;8.80;;
55827;SDS011;41758;51.992;5.890;2023-05-07T01:40:25;10.35;;;9.45;;
55827;SDS011;41758;51.992;5.890;2023-05-07T01:42:52;10.65;;;9.55;;
55827;SDS011;41758;51.992;5.890;2023-05-07T01:45:19;10.38;;;9.38;;
55827;SDS011;41758;51.992;5.890;2023-05-07T01:47:45;10.98;;;9.88;;
55827;SDS011;41758;51.992;5.890;2023-05-07T01:50:11;11.15;;;10.05;;
55827;SDS011;41758;51.992;5.890;2023-05-07T01:52:37;10.80;;;9.80;;
55827;SDS011;41758;51.992;5.890;2023-05-07T01:55:04;10.23;;;9.23;;
55827;SDS011;41758;51.992;5.890;2023-05-07T01:57:31;10.50;;;9.48;;
55827;SDS011;41758;51.992;5.890;2023-05-07T01:59:56;10.45;;;9.45;;
55827;SDS011;41758;51.992;5.890;2023-05-07T02:02:22;10.35;;;9.35;;
55827;SDS011;41758;51.992;5.890;2023-05-07T02:04:49;10.45;;;9.45;;
55827;SDS011;41758;51.992;5.890;2023-05-07T02:07:16;11.25;;;10.15;;
55827;SDS011;41758;51.992;5.890;2023-05-07T02:09:41;10.80;;;9.75;;
55827;SDS011;41758;51.992;5.890;2023-05-07T02:12:07;10.88;;;9.82;;
55827;SDS011;41758;51.992;5.890;2023-05-07T02:14:33;11.13;;;10.07;;
55827;SDS011;41758;51.992;5.890;2023-05-07T02:16:59;11.48;;;10.48;;
55827;SDS011;41758;51.992;5.890;2023-05-07T02:19:24;11.30;;;10.30;;
55827;SDS011;41758;51.992;5.890;2023-05-07T02:21:50;11.02;;;10.02;;
55827;SDS011;41758;51.992;5.890;2023-05-07T02:24:16;11.68;;;10.57;;
55827;SDS011;41758;51.992;5.890;2023-05-07T02:26:42;10.85;;;9.82;;
55827;SDS011;41758;51.992;5.890;2023-05-07T02:29:07;10.95;;;9.95;;
55827;SDS011;41758;51.992;5.890;2023-05-07T02:31:33;10.52;;;9.52;;
55827;SDS011;41758;51.992;5.890;2023-05-07T02:34:00;10.27;;;9.27;;
55827;SDS011;41758;51.992;5.890;2023-05-07T02:36:26;10.85;;;9.80;;
55827;SDS011;41758;51.992;5.890;2023-05-07T02:39:03;9.73;;;8.82;;
55827;SDS011;41758;51.992;5.890;2023-05-07T02:41:29;10.15;;;9.15;;
55827;SDS011;41758;51.992;5.890;2023-05-07T02:43:55;10.75;;;9.68;;
55827;SDS011;41758;51.992;5.890;2023-05-07T02:46:21;10.00;;;9.00;;
55827;SDS011;41758;51.992;5.890;2023-05-07T02:48:52;10.32;;;9.32;;
55827;SDS011;41758;51.992;5.890;2023-05-07T02:51:22;10.07;;;9.10;;
55827;SDS011;41758;51.992;5.890;2023-05-07T02:53:48;10.77;;;9.70;;
55827;SDS011;41758;51.992;5.890;2023-05-07T02:56:14;10.68;;;9.68;;
55827;SDS011;41758;51.992;5.890;2023-05-07T02:58:40;10.65;;;9.63;;
55827;SDS011;41758;51.992;5.890;2023-05-07T03:01:08;10.27;;;9.27;;
55827;SDS011;41758;51.992;5.890;2023-05-07T03:03:41;9.98;;;9.07;;
55827;SDS011;41758;51.992;5.890;2023-05-07T03:06:07;9.82;;;8.93;;
55827;SDS011;41758;51.992;5.890;2023-05-07T03:08:32;10.32;;;9.32;;
55827;SDS011;41758;51.992;5.890;2023-05-07T03:10:58;10.95;;;9.45;;
55827;SDS011;41758;51.992;5.890;2023-05-07T03:13:24;9.70;;;8.80;;
55827;SDS011;41758;51.992;5.890;2023-05-07T03:15:50;9.48;;;8.57;;
55827;SDS011;41758;51.992;5.890;2023-05-07T03:18:16;10.10;;;9.10;;
55827;SDS011;41758;51.992;5.890;2023-05-07T03:20:42;10.57;;;9.57;;
55827;SDS011;41758;51.992;5.890;2023-05-07T03:23:07;10.85;;;9.75;;
55827;SDS011;41758;51.992;5.890;2023-05-07T03:25:33;10.82;;;9.82;;
55827;SDS011;41758;51.992;5.890;2023-05-07T03:27:58;10.95;;;9.68;;
55827;SDS011;41758;51.992;5.890;2023-05-07T03:32:58;10.10;;;9.13;;
55827;SDS011;41758;51.992;5.890;2023-05-07T03:35:24;11.05;;;9.95;;
55827;SDS011;41758;51.992;5.890;2023-05-07T03:37:49;10.82;;;9.77;;
55827;SDS011;41758;51.992;5.890;2023-05-07T03:40:17;10.95;;;9.85;;
55827;SDS011;41758;51.992;5.890;2023-05-07T03:42:47;10.90;;;9.80;;
55827;SDS011;41758;51.992;5.890;2023-05-07T03:45:14;11.45;;;10.35;;
55827;SDS011;41758;51.992;5.890;2023-05-07T03:47:45;11.43;;;10.23;;
55827;SDS011;41758;51.992;5.890;2023-05-07T03:50:14;11.52;;;10.18;;
55827;SDS011;41758;51.992;5.890;2023-05-07T03:52:40;11.45;;;10.35;;
55827;SDS011;41758;51.992;5.890;2023-05-07T03:55:07;10.80;;;9.70;;
55827;SDS011;41758;51.992;5.890;2023-05-07T03:57:35;11.20;;;10.20;;
55827;SDS011;41758;51.992;5.890;2023-05-07T04:00:01;11.65;;;10.55;;
55827;SDS011;41758;51.992;5.890;2023-05-07T04:02:34;11.93;;;10.80;;
55827;SDS011;41758;51.992;5.890;2023-05-07T04:05:02;11.38;;;10.27;;
55827;SDS011;41758;51.992;5.890;2023-05-07T04:07:28;11.50;;;10.40;;
55827;SDS011;41758;51.992;5.890;2023-05-07T04:09:53;11.98;;;10.88;;
55827;SDS011;41758;51.992;5.890;2023-05-07T04:12:19;12.98;;;11.77;;
55827;SDS011;41758;51.992;5.890;2023-05-07T04:14:47;12.63;;;11.45;;
55827;SDS011;41758;51.992;5.890;2023-05-07T04:17:13;12.57;;;11.38;;
55827;SDS011;41758;51.992;5.890;2023-05-07T04:19:38;12.43;;;11.23;;
55827;SDS011;41758;51.992;5.890;2023-05-07T04:22:05;12.20;;;11.10;;
55827;SDS011;41758;51.992;5.890;2023-05-07T04:24:31;12.88;;;11.68;;
55827;SDS011;41758;51.992;5.890;2023-05-07T04:26:59;12.13;;;11.02;;
55827;SDS011;41758;51.992;5.890;2023-05-07T04:29:25;12.27;;;11.18;;
55827;SDS011;41758;51.992;5.890;2023-05-07T04:31:51;12.98;;;11.68;;
55827;SDS011;41758;51.992;5.890;2023-05-07T04:34:17;13.73;;;12.43;;
55827;SDS011;41758;51.992;5.890;2023-05-07T04:36:43;12.68;;;11.55;;
55827;SDS011;41758;51.992;5.890;2023-05-07T04:39:10;13.02;;;11.85;;
55827;SDS011;41758;51.992;5.890;2023-05-07T04:41:38;12.00;;;10.85;;
55827;SDS011;41758;51.992;5.890;2023-05-07T04:44:05;12.93;;;11.73;;
55827;SDS011;41758;51.992;5.890;2023-05-07T04:46:32;12.45;;;11.32;;
55827;SDS011;41758;51.992;5.890;2023-05-07T04:48:58;12.45;;;11.35;;
55827;SDS011;41758;51.992;5.890;2023-05-07T04:51:24;12.95;;;11.85;;
55827;SDS011;41758;51.992;5.890;2023-05-07T04:53:50;12.93;;;11.75;;
55827;SDS011;41758;51.992;5.890;2023-05-07T04:56:16;13.60;;;12.38;;
55827;SDS011;41758;51.992;5.890;2023-05-07T04:58:44;13.63;;;12.40;;
55827;SDS011;41758;51.992;5.890;2023-05-07T05:01:10;13.45;;;12.25;;
55827;SDS011;41758;51.992;5.890;2023-05-07T05:03:37;13.98;;;12.73;;
55827;SDS011;41758;51.992;5.890;2023-05-07T05:06:05;13.07;;;11.88;;
55827;SDS011;41758;51.992;5.890;2023-05-07T05:08:33;13.45;;;12.15;;
55827;SDS011;41758;51.992;5.890;2023-05-07T05:11:01;13.82;;;12.57;;
55827;SDS011;41758;51.992;5.890;2023-05-07T05:13:28;14.77;;;13.45;;
55827;SDS011;41758;51.992;5.890;2023-05-07T05:15:53;14.02;;;12.70;;
55827;SDS011;41758;51.992;5.890;2023-05-07T05:18:19;15.38;;;13.98;;
55827;SDS011;41758;51.992;5.890;2023-05-07T05:20:45;15.00;;;13.60;;
55827;SDS011;41758;51.992;5.890;2023-05-07T05:23:11;15.15;;;13.75;;
55827;SDS011;41758;51.992;5.890;2023-05-07T05:25:38;14.30;;;13.00;;
55827;SDS011;41758;51.992;5.890;2023-05-07T05:28:05;14.82;;;13.43;;
55827;SDS011;41758;51.992;5.890;2023-05-07T05:30:32;14.20;;;12.90;;
55827;SDS011;41758;51.992;5.890;2023-05-07T05:32:58;13.55;;;12.35;;
55827;SDS011;41758;51.992;5.890;2023-05-07T05:35:26;13.85;;;12.55;;
55827;SDS011;41758;51.992;5.890;2023-05-07T05:37:51;13.55;;;12.32;;
55827;SDS011;41758;51.992;5.890;2023-05-07T05:40:18;13.40;;;12.18;;
55827;SDS011;41758;51.992;5.890;2023-05-07T05:42:43;13.75;;;12.55;;
55827;SDS011;41758;51.992;5.890;2023-05-07T05:45:10;13.05;;;11.85;;
55827;SDS011;41758;51.992;5.890;2023-05-07T05:47:37;12.80;;;11.60;;
55827;SDS011;41758;51.992;5.890;2023-05-07T05:50:05;13.52;;;12.23;;
55827;SDS011;41758;51.992;5.890;2023-05-07T05:52:32;12.85;;;11.65;;
55827;SDS011;41758;51.992;5.890;2023-05-07T05:54:58;13.60;;;12.30;;
55827;SDS011;41758;51.992;5.890;2023-05-07T05:57:24;12.75;;;11.63;;
55827;SDS011;41758;51.992;5.890;2023-05-07T05:59:50;13.82;;;12.55;;
55827;SDS011;41758;51.992;5.890;2023-05-07T06:02:17;14.57;;;13.18;;
55827;SDS011;41758;51.992;5.890;2023-05-07T06:04:43;13.90;;;12.60;;
55827;SDS011;41758;51.992;5.890;2023-05-07T06:07:12;13.85;;;12.65;;
55827;SDS011;41758;51.992;5.890;2023-05-07T06:09:37;12.73;;;11.60;;
55827;SDS011;41758;51.992;5.890;2023-05-07T06:12:04;12.65;;;11.48;;
55827;SDS011;41758;51.992;5.890;2023-05-07T06:14:30;14.05;;;12.75;;
55827;SDS011;41758;51.992;5.890;2023-05-07T06:16:57;13.38;;;12.18;;
55827;SDS011;41758;51.992;5.890;2023-05-07T06:19:22;12.38;;;11.18;;
55827;SDS011;41758;51.992;5.890;2023-05-07T06:21:50;12.63;;;11.45;;
55827;SDS011;41758;51.992;5.890;2023-05-07T06:24:15;11.70;;;10.60;;
55827;SDS011;41758;51.992;5.890;2023-05-07T06:26:42;12.32;;;11.23;;
55827;SDS011;41758;51.992;5.890;2023-05-07T06:29:07;12.13;;;10.98;;
55827;SDS011;41758;51.992;5.890;2023-05-07T06:31:33;14.80;;;13.50;;
55827;SDS011;41758;51.992;5.890;2023-05-07T06:34:05;14.95;;;13.65;;
55827;SDS011;41758;51.992;5.890;2023-05-07T06:36:35;14.15;;;12.75;;
55827;SDS011;41758;51.992;5.890;2023-05-07T06:39:08;13.70;;;12.40;;
55827;SDS011;41758;51.992;5.890;2023-05-07T06:41:35;13.23;;;12.02;;
55827;SDS011;41758;51.992;5.890;2023-05-07T06:44:06;13.25;;;12.05;;
55827;SDS011;41758;51.992;5.890;2023-05-07T06:46:38;13.82;;;12.57;;
55827;SDS011;41758;51.992;5.890;2023-05-07T06:49:05;13.52;;;12.32;;
55827;SDS011;41758;51.992;5.890;2023-05-07T06:51:31;15.45;;;14.05;;
55827;SDS011;41758;51.992;5.890;2023-05-07T06:54:01;14.57;;;13.27;;
55827;SDS011;41758;51.992;5.890;2023-05-07T06:56:27;14.80;;;13.45;;
55827;SDS011;41758;51.992;5.890;2023-05-07T06:58:52;14.05;;;12.75;;
55827;SDS011;41758;51.992;5.890;2023-05-07T07:01:19;14.38;;;13.07;;
55827;SDS011;41758;51.992;5.890;2023-05-07T07:03:45;15.25;;;13.95;;
55827;SDS011;41758;51.992;5.890;2023-05-07T07:06:11;16.27;;;14.68;;
55827;SDS011;41758;51.992;5.890;2023-05-07T07:08:36;16.55;;;15.05;;
55827;SDS011;41758;51.992;5.890;2023-05-07T07:11:04;16.77;;;15.27;;
55827;SDS011;41758;51.992;5.890;2023-05-07T07:13:31;15.85;;;14.35;;
55827;SDS011;41758;51.992;5.890;2023-05-07T07:15:57;15.73;;;14.32;;
55827;SDS011;41758;51.992;5.890;2023-05-07T07:18:22;16.58;;;15.07;;
55827;SDS011;41758;51.992;5.890;2023-05-07T07:20:49;15.63;;;14.13;;
55827;SDS011;41758;51.992;5.890;2023-05-07T07:23:15;17.52;;;15.82;;
55827;SDS011;41758;51.992;5.890;2023-05-07T07:25:41;16.65;;;14.90;;
55827;SDS011;41758;51.992;5.890;2023-05-07T07:28:07;15.60;;;14.20;;
55827;SDS011;41758;51.992;5.890;2023-05-07T07:30:35;16.75;;;15.25;;
55827;SDS011;41758;51.992;5.890;2023-05-07T07:33:01;16.63;;;15.05;;
55827;SDS011;41758;51.992;5.890;2023-05-07T07:35:31;15.90;;;14.45;;
55827;SDS011;41758;51.992;5.890;2023-05-07T07:37:57;16.05;;;14.65;;
55827;SDS011;41758;51.992;5.890;2023-05-07T07:40:23;17.08;;;15.45;;
55827;SDS011;41758;51.992;5.890;2023-05-07T07:42:50;18.23;;;16.60;;
55827;SDS011;41758;51.992;5.890;2023-05-07T07:45:17;18.55;;;16.77;;
55827;SDS011;41758;51.992;5.890;2023-05-07T07:47:46;17.98;;;16.25;;
55827;SDS011;41758;51.992;5.890;2023-05-07T07:50:12;17.35;;;15.73;;
55827;SDS011;41758;51.992;5.890;2023-05-07T07:52:38;17.33;;;15.75;;
55827;SDS011;41758;51.992;5.890;2023-05-07T07:55:06;17.73;;;16.13;;
55827;SDS011;41758;51.992;5.890;2023-05-07T07:57:32;16.75;;;15.25;;
55827;SDS011;41758;51.992;5.890;2023-05-07T07:59:59;16.77;;;15.18;;
55827;SDS011;41758;51.992;5.890;2023-05-07T08:02:25;17.40;;;15.70;;
55827;SDS011;41758;51.992;5.890;2023-05-07T08:04:51;17.70;;;16.00;;
55827;SDS011;41758;51.992;5.890;2023-05-07T08:07:17;18.50;;;16.88;;
55827;SDS011;41758;51.992;5.890;2023-05-07T08:09:46;18.13;;;16.30;;
55827;SDS011;41758;51.992;5.890;2023-05-07T08:12:14;16.55;;;15.00;;
55827;SDS011;41758;51.992;5.890;2023-05-07T08:14:41;15.65;;;14.23;;
55827;SDS011;41758;51.992;5.890;2023-05-07T08:17:07;17.45;;;15.80;;
55827;SDS011;41758;51.992;5.890;2023-05-07T08:19:35;17.55;;;15.85;;
55827;SDS011;41758;51.992;5.890;2023-05-07T08:22:01;18.80;;;17.00;;
55827;SDS011;41758;51.992;5.890;2023-05-07T08:24:28;18.70;;;17.00;;
55827;SDS011;41758;51.992;5.890;2023-05-07T08:26:54;18.10;;;16.40;;
55827;SDS011;41758;51.992;5.890;2023-05-07T08:29:20;16.95;;;15.38;;
55827;SDS011;41758;51.992;5.890;2023-05-07T08:31:45;15.63;;;14.13;;
55827;SDS011;41758;51.992;5.890;2023-05-07T08:34:11;16.23;;;14.82;;
55827;SDS011;41758;51.992;5.890;2023-05-07T08:36:42;15.60;;;13.95;;
55827;SDS011;41758;51.992;5.890;2023-05-07T08:39:09;15.27;;;13.77;;
55827;SDS011;41758;51.992;5.890;2023-05-07T08:41:35;15.07;;;13.60;;
55827;SDS011;41758;51.992;5.890;2023-05-07T08:44:02;20.35;;;18.20;;
55827;SDS011;41758;51.992;5.890;2023-05-07T08:46:30;22.00;;;19.80;;
55827;SDS011;41758;51.992;5.890;2023-05-07T08:48:57;21.98;;;19.77;;
55827;SDS011;41758;51.992;5.890;2023-05-07T08:51:23;24.90;;;22.27;;
55827;SDS011;41758;51.992;5.890;2023-05-07T08:53:50;20.35;;;18.35;;
55827;SDS011;41758;51.992;5.890;2023-05-07T08:56:21;17.45;;;15.77;;
55827;SDS011;41758;51.992;5.890;2023-05-07T08:58:48;16.15;;;14.55;;
55827;SDS011;41758;51.992;5.890;2023-05-07T09:01:14;15.35;;;13.85;;
55827;SDS011;41758;51.992;5.890;2023-05-07T09:03:45;15.15;;;13.57;;
55827;SDS011;41758;51.992;5.890;2023-05-07T09:06:12;14.45;;;13.05;;
55827;SDS011;41758;51.992;5.890;2023-05-07T09:08:38;14.43;;;13.13;;
55827;SDS011;41758;51.992;5.890;2023-05-07T09:11:06;14.13;;;12.82;;
55827;SDS011;41758;51.992;5.890;2023-05-07T09:13:32;15.55;;;14.13;;
55827;SDS011;41758;51.992;5.890;2023-05-07T09:16:09;15.00;;;13.60;;
55827;SDS011;41758;51.992;5.890;2023-05-07T09:18:43;14.25;;;12.85;;
55827;SDS011;41758;51.992;5.890;2023-05-07T09:21:11;13.32;;;12.10;;
55827;SDS011;41758;51.992;5.890;2023-05-07T09:23:41;13.13;;;11.93;;
55827;SDS011;41758;51.992;5.890;2023-05-07T09:26:07;13.73;;;12.45;;
55827;SDS011;41758;51.992;5.890;2023-05-07T09:28:39;13.82;;;12.52;;
55827;SDS011;41758;51.992;5.890;2023-05-07T09:31:07;14.43;;;13.02;;
55827;SDS011;41758;51.992;5.890;2023-05-07T09:33:34;14.20;;;12.85;;
55827;SDS011;41758;51.992;5.890;2023-05-07T09:36:02;14.00;;;12.50;;
55827;SDS011;41758;51.992;5.890;2023-05-07T09:38:31;13.75;;;12.35;;
55827;SDS011;41758;51.992;5.890;2023-05-07T09:41:02;13.88;;;12.48;;
55827;SDS011;41758;51.992;5.890;2023-05-07T09:43:38;12.80;;;11.60;;
55827;SDS011;41758;51.992;5.890;2023-05-07T09:46:13;12.65;;;11.43;;
55827;SDS011;41758;51.992;5.890;2023-05-07T09:48:45;13.48;;;12.18;;
55827;SDS011;41758;51.992;5.890;2023-05-07T09:51:22;13.27;;;12.02;;
55827;SDS011;41758;51.992;5.890;2023-05-07T09:53:56;14.48;;;13.07;;
55827;SDS011;41758;51.992;5.890;2023-05-07T09:56:23;13.75;;;12.35;;
55827;SDS011;41758;51.992;5.890;2023-05-07T09:58:50;14.52;;;13.23;;
55827;SDS011;41758;51.992;5.890;2023-05-07T10:01:19;13.95;;;12.55;;
55827;SDS011;41758;51.992;5.890;2023-05-07T10:03:47;13.00;;;11.80;;
55827;SDS011;41758;51.992;5.890;2023-05-07T10:06:15;12.93;;;11.63;;
55827;SDS011;41758;51.992;5.890;2023-05-07T10:08:42;13.70;;;12.40;;
55827;SDS011;41758;51.992;5.890;2023-05-07T10:11:08;13.07;;;11.77;;
55827;SDS011;41758;51.992;5.890;2023-05-07T10:13:34;13.80;;;12.45;;
55827;SDS011;41758;51.992;5.890;2023-05-07T10:16:05;14.75;;;13.35;;
55827;SDS011;41758;51.992;5.890;2023-05-07T10:18:38;14.10;;;12.80;;
55827;SDS011;41758;51.992;5.890;2023-05-07T10:21:11;15.33;;;13.93;;
55827;SDS011;41758;51.992;5.890;2023-05-07T10:23:39;15.50;;;14.07;;
55827;SDS011;41758;51.992;5.890;2023-05-07T10:26:06;16.65;;;15.05;;
55827;SDS011;41758;51.992;5.890;2023-05-07T10:28:39;18.27;;;16.58;;
55827;SDS011;41758;51.992;5.890;2023-05-07T10:31:14;16.13;;;14.57;;
55827;SDS011;41758;51.992;5.890;2023-05-07T10:33:47;17.17;;;15.57;;
55827;SDS011;41758;51.992;5.890;2023-05-07T10:36:17;16.05;;;14.57;;
55827;SDS011;41758;51.992;5.890;2023-05-07T10:38:43;15.48;;;14.07;;
55827;SDS011;41758;51.992;5.890;2023-05-07T10:41:09;15.40;;;13.98;;
55827;SDS011;41758;51.992;5.890;2023-05-07T10:43:39;14.55;;;13.23;;
55827;SDS011;41758;51.992;5.890;2023-05-07T10:46:15;16.50;;;14.90;;
55827;SDS011;41758;51.992;5.890;2023-05-07T10:51:36;14.70;;;13.35;;
55827;SDS011;41758;51.992;5.890;2023-05-07T10:54:25;14.30;;;13.00;;
55827;SDS011;41758;51.992;5.890;2023-05-07T11:00:41;13.55;;;11.45;;
55827;SDS011;41758;51.992;5.890;2023-05-07T11:03:11;12.82;;;10.10;;
55827;SDS011;41758;51.992;5.890;2023-05-07T11:06:08;14.50;;;11.27;;
55827;SDS011;41758;51.992;5.890;2023-05-07T11:09:11;11.13;;;9.48;;
55827;SDS011;41758;51.992;5.890;2023-05-07T11:17:12;11.43;;;9.35;;
55827;SDS011;41758;51.992;5.890;2023-05-07T11:19:55;10.40;;;8.85;;
55827;SDS011;41758;51.992;5.890;2023-05-07T11:25:19;11.07;;;8.55;;
55827;SDS011;41758;51.992;5.890;2023-05-07T11:27:48;28.40;;;12.40;;
55827;SDS011;41758;51.992;5.890;2023-05-07T11:30:18;18.73;;;11.60;;
55827;SDS011;41758;51.992;5.890;2023-05-07T11:32:46;19.88;;;10.68;;
55827;SDS011;41758;51.992;5.890;2023-05-07T11:35:15;17.73;;;10.38;;
55827;SDS011;41758;51.992;5.890;2023-05-07T11:37:42;26.38;;;11.85;;
55827;SDS011;41758;51.992;5.890;2023-05-07T11:40:10;19.25;;;10.65;;
55827;SDS011;41758;51.992;5.890;2023-05-07T11:42:37;13.93;;;9.60;;
55827;SDS011;41758;51.992;5.890;2023-05-07T11:45:04;17.77;;;10.60;;
55827;SDS011;41758;51.992;5.890;2023-05-07T11:47:31;13.55;;;10.35;;
55827;SDS011;41758;51.992;5.890;2023-05-07T11:50:02;11.05;;;8.98;;
55827;SDS011;41758;51.992;5.890;2023-05-07T11:52:28;9.98;;;7.85;;
55827;SDS011;41758;51.992;5.890;2023-05-07T11:54:55;9.10;;;8.20;;
55827;SDS011;41758;51.992;5.890;2023-05-07T11:57:22;11.88;;;8.18;;
55827;SDS011;41758;51.992;5.890;2023-05-07T11:59:52;8.15;;;7.35;;
55827;SDS011;41758;51.992;5.890;2023-05-07T12:02:19;8.73;;;7.82;;
55827;SDS011;41758;51.992;5.890;2023-05-07T12:04:44;8.45;;;7.60;;
55827;SDS011;41758;51.992;5.890;2023-05-07T12:07:13;8.10;;;7.30;;
55827;SDS011;41758;51.992;5.890;2023-05-07T12:09:40;8.63;;;7.72;;
55827;SDS011;41758;51.992;5.890;2023-05-07T12:12:06;8.90;;;8.00;;
55827;SDS011;41758;51.992;5.890;2023-05-07T12:14:32;8.75;;;7.85;;
55827;SDS011;41758;51.992;5.890;2023-05-07T12:17:01;9.38;;;8.43;;
55827;SDS011;41758;51.992;5.890;2023-05-07T12:19:29;8.80;;;7.82;;
55827;SDS011;41758;51.992;5.890;2023-05-07T12:21:55;13.70;;;12.50;;
55827;SDS011;41758;51.992;5.890;2023-05-07T12:24:22;10.25;;;9.30;;
55827;SDS011;41758;51.992;5.890;2023-05-07T12:26:48;9.27;;;8.38;;
55827;SDS011;41758;51.992;5.890;2023-05-07T12:29:14;8.85;;;7.93;;
55827;SDS011;41758;51.992;5.890;2023-05-07T12:31:43;9.82;;;8.82;;
55827;SDS011;41758;51.992;5.890;2023-05-07T12:34:10;9.50;;;8.50;;
55827;SDS011;41758;51.992;5.890;2023-05-07T12:36:37;9.15;;;8.25;;
55827;SDS011;41758;51.992;5.890;2023-05-07T12:39:04;11.00;;;9.50;;
55827;SDS011;41758;51.992;5.890;2023-05-07T12:41:31;11.00;;;9.90;;
55827;SDS011;41758;51.992;5.890;2023-05-07T12:44:16;10.10;;;9.10;;
55827;SDS011;41758;51.992;5.890;2023-05-07T12:46:42;9.93;;;8.82;;
55827;SDS011;41758;51.992;5.890;2023-05-07T12:49:08;8.80;;;7.95;;
55827;SDS011;41758;51.992;5.890;2023-05-07T12:51:34;9.25;;;7.88;;
55827;SDS011;41758;51.992;5.890;2023-05-07T12:54:00;9.38;;;8.18;;
55827;SDS011;41758;51.992;5.890;2023-05-07T12:56:26;8.50;;;7.60;;
55827;SDS011;41758;51.992;5.890;2023-05-07T12:58:51;8.45;;;7.60;;
55827;SDS011;41758;51.992;5.890;2023-05-07T13:01:28;9.77;;;7.90;;
55827;SDS011;41758;51.992;5.890;2023-05-07T13:03:55;9.20;;;7.63;;
55827;SDS011;41758;51.992;5.890;2023-05-07T13:06:21;8.80;;;7.25;;
55827;SDS011;41758;51.992;5.890;2023-05-07T13:08:46;7.70;;;6.88;;
55827;SDS011;41758;51.992;5.890;2023-05-07T13:11:12;7.18;;;6.47;;
55827;SDS011;41758;51.992;5.890;2023-05-07T13:13:39;8.25;;;6.63;;
55827;SDS011;41758;51.992;5.890;2023-05-07T13:16:07;7.85;;;7.05;;
55827;SDS011;41758;51.992;5.890;2023-05-07T13:18:34;8.52;;;6.75;;
55827;SDS011;41758;51.992;5.890;2023-05-07T13:21:02;13.93;;;8.35;;
55827;SDS011;41758;51.992;5.890;2023-05-07T13:23:28;10.40;;;6.90;;
55827;SDS011;41758;51.992;5.890;2023-05-07T13:25:54;7.75;;;6.10;;
55827;SDS011;41758;51.992;5.890;2023-05-07T13:28:21;8.07;;;7.25;;
55827;SDS011;41758;51.992;5.890;2023-05-07T13:30:47;8.57;;;7.10;;
55827;SDS011;41758;51.992;5.890;2023-05-07T13:33:13;8.02;;;6.82;;
55827;SDS011;41758;51.992;5.890;2023-05-07T13:35:40;8.48;;;7.57;;
55827;SDS011;41758;51.992;5.890;2023-05-07T13:38:06;7.80;;;6.85;;
55827;SDS011;41758;51.992;5.890;2023-05-07T13:40:31;8.63;;;7.13;;
55827;SDS011;41758;51.992;5.890;2023-05-07T13:42:57;8.20;;;6.85;;
55827;SDS011;41758;51.992;5.890;2023-05-07T13:45:25;7.70;;;6.85;;
55827;SDS011;41758;51.992;5.890;2023-05-07T13:47:51;7.50;;;6.35;;
55827;SDS011;41758;51.992;5.890;2023-05-07T13:50:17;9.18;;;8.15;;
55827;SDS011;41758;51.992;5.890;2023-05-07T13:52:43;8.63;;;7.72;;
55827;SDS011;41758;51.992;5.890;2023-05-07T13:55:22;7.22;;;6.50;;
55827;SDS011;41758;51.992;5.890;2023-05-07T13:57:54;8.10;;;7.30;;
55827;SDS011;41758;51.992;5.890;2023-05-07T14:00:21;7.75;;;6.68;;
55827;SDS011;41758;51.992;5.890;2023-05-07T14:02:47;8.18;;;6.97;;
55827;SDS011;41758;51.992;5.890;2023-05-07T14:05:13;7.82;;;6.57;;
55827;SDS011;41758;51.992;5.890;2023-05-07T14:07:38;7.72;;;6.90;;
55827;SDS011;41758;51.992;5.890;2023-05-07T14:10:04;7.95;;;7.18;;
55827;SDS011;41758;51.992;5.890;2023-05-07T14:12:31;7.90;;;7.10;;
55827;SDS011;41758;51.992;5.890;2023-05-07T14:14:57;8.23;;;7.43;;
55827;SDS011;41758;51.992;5.890;2023-05-07T14:17:23;7.88;;;7.05;;
55827;SDS011;41758;51.992;5.890;2023-05-07T14:19:50;7.13;;;6.43;;
55827;SDS011;41758;51.992;5.890;2023-05-07T14:22:16;7.97;;;7.18;;
55827;SDS011;41758;51.992;5.890;2023-05-07T14:24:41;8.30;;;7.50;;
55827;SDS011;41758;51.992;5.890;2023-05-07T14:27:07;8.98;;;8.07;;
55827;SDS011;41758;51.992;5.890;2023-05-07T14:29:33;8.75;;;7.88;;
55827;SDS011;41758;51.992;5.890;2023-05-07T14:32:00;8.82;;;7.85;;
55827;SDS011;41758;51.992;5.890;2023-05-07T14:34:27;8.52;;;6.97;;
55827;SDS011;41758;51.992;5.890;2023-05-07T14:36:52;8.77;;;7.88;;
55827;SDS011;41758;51.992;5.890;2023-05-07T14:39:18;7.85;;;7.05;;
55827;SDS011;41758;51.992;5.890;2023-05-07T14:41:43;8.25;;;7.38;;
55827;SDS011;41758;51.992;5.890;2023-05-07T14:44:09;8.30;;;7.47;;
55827;SDS011;41758;51.992;5.890;2023-05-07T14:46:35;9.07;;;8.00;;
55827;SDS011;41758;51.992;5.890;2023-05-07T14:49:01;9.63;;;8.73;;
55827;SDS011;41758;51.992;5.890;2023-05-07T14:51:27;9.75;;;8.75;;